sensor_id;sensor_type;location;lat;lon;timestamp;temperature;humidity
60473;DHT22;46318;52.716;6.444;2023-03-01T00:01:08;-0.20;99.90
60473;DHT22;46318;52.716;6.444;2023-03-01T00:03:36;-0.30;99.90
60473;DHT22;46318;52.716;6.444;2023-03-01T00:06:03;-0.30;99.90
60473;DHT22;46318;52.716;6.444;2023-03-01T00:08:30;-0.30;99.90
60473;DHT22;46318;52.716;6.444;2023-03-01T00:11:24;-0.30;99.90
60473;DHT22;46318;52.716;6.444;2023-03-01T00:13:53;-0.40;99.90
60473;DHT22;46318;52.716;6.444;2023-03-01T00:16:24;-0.40;99.90
60473;DHT22;46318;52.716;6.444;2023-03-01T00:19:00;-0.40;99.90
60473;DHT22;46318;52.716;6.444;2023-03-01T00:21:26;-0.40;99.90
60473;DHT22;46318;52.716;6.444;2023-03-01T00:23:53;-0.50;99.90
60473;DHT22;46318;52.716;6.444;2023-03-01T00:26:22;-0.50;99.90
60473;DHT22;46318;52.716;6.444;2023-03-01T00:28:48;-0.50;99.90
60473;DHT22;46318;52.716;6.444;2023-03-01T00:31:18;-0.50;99.90
60473;DHT22;46318;52.716;6.444;2023-03-01T00:33:45;-0.50;99.90
60473;DHT22;46318;52.716;6.444;2023-03-01T00:36:13;-0.60;99.90
60473;DHT22;46318;52.716;6.444;2023-03-01T00:38:42;-0.60;99.90
60473;DHT22;46318;52.716;6.444;2023-03-01T00:41:11;-0.60;99.90
60473;DHT22;46318;52.716;6.444;2023-03-01T00:43:39;-0.60;99.90
60473;DHT22;46318;52.716;6.444;2023-03-01T00:46:10;-0.60;99.90
60473;DHT22;46318;52.716;6.444;2023-03-01T00:48:41;-0.60;99.90
60473;DHT22;46318;52.716;6.444;2023-03-01T00:51:09;-0.60;99.90
60473;DHT22;46318;52.716;6.444;2023-03-01T00:53:40;-0.70;99.90
60473;DHT22;46318;52.716;6.444;2023-03-01T00:56:08;-0.70;99.90
60473;DHT22;46318;52.716;6.444;2023-03-01T00:58:36;-0.70;99.90
60473;DHT22;46318;52.716;6.444;2023-03-01T01:03:53;-0.70;99.90
60473;DHT22;46318;52.716;6.444;2023-03-01T01:06:27;-0.70;99.90
60473;DHT22;46318;52.716;6.444;2023-03-01T01:08:57;-0.70;99.90
60473;DHT22;46318;52.716;6.444;2023-03-01T01:11:25;-0.70;99.90
60473;DHT22;46318;52.716;6.444;2023-03-01T01:13:52;-0.70;99.90
60473;DHT22;46318;52.716;6.444;2023-03-01T01:16:20;-0.70;99.90
60473;DHT22;46318;52.716;6.444;2023-03-01T01:18:47;-0.70;99.90
60473;DHT22;46318;52.716;6.444;2023-03-01T01:21:16;-0.70;99.90
60473;DHT22;46318;52.716;6.444;2023-03-01T01:23:45;-0.80;99.90
60473;DHT22;46318;52.716;6.444;2023-03-01T01:26:15;-0.80;99.90
60473;DHT22;46318;52.716;6.444;2023-03-01T01:28:48;-0.80;99.90
60473;DHT22;46318;52.716;6.444;2023-03-01T01:31:18;-0.80;99.90
60473;DHT22;46318;52.716;6.444;2023-03-01T01:33:45;-0.80;99.90
60473;DHT22;46318;52.716;6.444;2023-03-01T01:36:11;-0.80;99.90
60473;DHT22;46318;52.716;6.444;2023-03-01T01:38:38;-0.80;99.90
60473;DHT22;46318;52.716;6.444;2023-03-01T01:41:05;-0.80;99.90
60473;DHT22;46318;52.716;6.444;2023-03-01T01:43:38;-0.80;99.90
60473;DHT22;46318;52.716;6.444;2023-03-01T01:46:32;-0.80;99.90
60473;DHT22;46318;52.716;6.444;2023-03-01T01:49:03;-0.80;99.90
60473;DHT22;46318;52.716;6.444;2023-03-01T01:51:35;-0.80;99.90
60473;DHT22;46318;52.716;6.444;2023-03-01T01:54:23;-0.90;99.90
60473;DHT22;46318;52.716;6.444;2023-03-01T01:56:56;-0.90;99.90
60473;DHT22;46318;52.716;6.444;2023-03-01T01:59:27;-0.90;99.90
60473;DHT22;46318;52.716;6.444;2023-03-01T02:01:54;-0.90;99.90
60473;DHT22;46318;52.716;6.444;2023-03-01T02:04:21;-0.90;99.90
60473;DHT22;46318;52.716;6.444;2023-03-01T02:07:14;-0.90;99.90
60473;DHT22;46318;52.716;6.444;2023-03-01T02:09:50;-0.90;99.90
60473;DHT22;46318;52.716;6.444;2023-03-01T02:12:21;-0.90;99.90
60473;DHT22;46318;52.716;6.444;2023-03-01T02:14:57;-0.90;99.90
60473;DHT22;46318;52.716;6.444;2023-03-01T02:17:23;-1.00;99.90
60473;DHT22;46318;52.716;6.444;2023-03-01T02:22:43;-1.00;99.90
60473;DHT22;46318;52.716;6.444;2023-03-01T02:30:25;-1.00;99.90
60473;DHT22;46318;52.716;6.444;2023-03-01T02:32:54;-1.00;99.90
60473;DHT22;46318;52.716;6.444;2023-03-01T02:35:30;-1.00;99.90
60473;DHT22;46318;52.716;6.444;2023-03-01T02:38:00;-1.00;99.90
60473;DHT22;46318;52.716;6.444;2023-03-01T02:40:29;-1.10;99.90
60473;DHT22;46318;52.716;6.444;2023-03-01T02:42:58;-1.10;99.90
60473;DHT22;46318;52.716;6.444;2023-03-01T02:45:26;-1.10;99.90
60473;DHT22;46318;52.716;6.444;2023-03-01T02:47:56;-1.20;99.90
60473;DHT22;46318;52.716;6.444;2023-03-01T02:50:43;-1.20;99.90
60473;DHT22;46318;52.716;6.444;2023-03-01T02:53:45;-1.20;99.90
60473;DHT22;46318;52.716;6.444;2023-03-01T02:56:08;-1.20;99.90
60473;DHT22;46318;52.716;6.444;2023-03-01T02:58:42;-1.20;99.90
60473;DHT22;46318;52.716;6.444;2023-03-01T03:01:13;-1.20;99.90
60473;DHT22;46318;52.716;6.444;2023-03-01T03:03:42;-1.20;99.90
60473;DHT22;46318;52.716;6.444;2023-03-01T03:06:09;-1.30;99.90
60473;DHT22;46318;52.716;6.444;2023-03-01T03:08:35;-1.30;99.90
60473;DHT22;46318;52.716;6.444;2023-03-01T03:11:01;-1.30;99.90
60473;DHT22;46318;52.716;6.444;2023-03-01T03:13:27;-1.30;99.90
60473;DHT22;46318;52.716;6.444;2023-03-01T03:15:57;-1.30;99.90
60473;DHT22;46318;52.716;6.444;2023-03-01T03:18:23;-1.30;99.90
60473;DHT22;46318;52.716;6.444;2023-03-01T03:20:53;-1.40;99.90
60473;DHT22;46318;52.716;6.444;2023-03-01T03:23:23;-1.40;99.90
60473;DHT22;46318;52.716;6.444;2023-03-01T03:25:50;-1.40;99.90
60473;DHT22;46318;52.716;6.444;2023-03-01T03:28:16;-1.40;99.90
60473;DHT22;46318;52.716;6.444;2023-03-01T03:30:43;-1.40;99.90
60473;DHT22;46318;52.716;6.444;2023-03-01T03:33:11;-1.40;99.90
60473;DHT22;46318;52.716;6.444;2023-03-01T03:35:42;-1.40;99.90
60473;DHT22;46318;52.716;6.444;2023-03-01T03:38:12;-1.40;99.90
60473;DHT22;46318;52.716;6.444;2023-03-01T03:40:42;-1.40;99.90
60473;DHT22;46318;52.716;6.444;2023-03-01T03:43:15;-1.50;99.90
60473;DHT22;46318;52.716;6.444;2023-03-01T03:45:44;-1.50;99.90
60473;DHT22;46318;52.716;6.444;2023-03-01T03:48:11;-1.50;99.90
60473;DHT22;46318;52.716;6.444;2023-03-01T03:50:39;-1.50;99.90
60473;DHT22;46318;52.716;6.444;2023-03-01T03:53:09;-1.50;99.90
60473;DHT22;46318;52.716;6.444;2023-03-01T03:55:38;-1.50;99.90
60473;DHT22;46318;52.716;6.444;2023-03-01T03:58:06;-1.50;99.90
60473;DHT22;46318;52.716;6.444;2023-03-01T04:00:36;-1.60;99.90
60473;DHT22;46318;52.716;6.444;2023-03-01T04:03:03;-1.60;99.90
60473;DHT22;46318;52.716;6.444;2023-03-01T04:05:30;-1.60;99.90
60473;DHT22;46318;52.716;6.444;2023-03-01T04:07:56;-1.60;99.90
60473;DHT22;46318;52.716;6.444;2023-03-01T04:10:40;-1.70;99.90
60473;DHT22;46318;52.716;6.444;2023-03-01T04:13:12;-1.70;99.90
60473;DHT22;46318;52.716;6.444;2023-03-01T04:15:40;-1.70;99.90
60473;DHT22;46318;52.716;6.444;2023-03-01T04:18:06;-1.70;99.90
60473;DHT22;46318;52.716;6.444;2023-03-01T04:20:34;-1.80;99.90
60473;DHT22;46318;52.716;6.444;2023-03-01T04:23:15;-1.80;99.90
60473;DHT22;46318;52.716;6.444;2023-03-01T04:25:53;-1.80;99.90
60473;DHT22;46318;52.716;6.444;2023-03-01T04:28:28;-1.80;99.90
60473;DHT22;46318;52.716;6.444;2023-03-01T04:30:56;-1.90;99.90
60473;DHT22;46318;52.716;6.444;2023-03-01T04:33:25;-1.90;99.90
60473;DHT22;46318;52.716;6.444;2023-03-01T04:35:51;-1.90;99.90
60473;DHT22;46318;52.716;6.444;2023-03-01T04:38:18;-1.90;99.90
60473;DHT22;46318;52.716;6.444;2023-03-01T04:40:45;-1.90;99.90
60473;DHT22;46318;52.716;6.444;2023-03-01T04:43:12;-1.90;99.90
60473;DHT22;46318;52.716;6.444;2023-03-01T04:45:40;-2.00;99.90
60473;DHT22;46318;52.716;6.444;2023-03-01T04:48:06;-2.00;99.90
60473;DHT22;46318;52.716;6.444;2023-03-01T04:50:32;-2.00;99.90
60473;DHT22;46318;52.716;6.444;2023-03-01T04:52:58;-2.10;99.90
60473;DHT22;46318;52.716;6.444;2023-03-01T04:55:26;-2.10;99.90
60473;DHT22;46318;52.716;6.444;2023-03-01T04:57:52;-2.10;99.90
60473;DHT22;46318;52.716;6.444;2023-03-01T05:00:19;-2.10;99.90
60473;DHT22;46318;52.716;6.444;2023-03-01T05:05:38;-2.20;99.90
60473;DHT22;46318;52.716;6.444;2023-03-01T05:08:06;-2.20;99.90
60473;DHT22;46318;52.716;6.444;2023-03-01T05:10:35;-2.20;99.90
60473;DHT22;46318;52.716;6.444;2023-03-01T05:13:02;-2.20;99.90
60473;DHT22;46318;52.716;6.444;2023-03-01T05:15:31;-2.20;99.90
60473;DHT22;46318;52.716;6.444;2023-03-01T05:17:58;-2.30;99.90
60473;DHT22;46318;52.716;6.444;2023-03-01T05:20:27;-2.30;99.90
60473;DHT22;46318;52.716;6.444;2023-03-01T05:22:56;-2.30;99.90
60473;DHT22;46318;52.716;6.444;2023-03-01T05:25:25;-2.30;99.90
60473;DHT22;46318;52.716;6.444;2023-03-01T05:27:51;-2.30;99.90
60473;DHT22;46318;52.716;6.444;2023-03-01T05:30:17;-2.30;99.90
60473;DHT22;46318;52.716;6.444;2023-03-01T05:32:45;-2.30;99.90
60473;DHT22;46318;52.716;6.444;2023-03-01T05:35:14;-2.40;99.90
60473;DHT22;46318;52.716;6.444;2023-03-01T05:37:46;-2.40;99.90
60473;DHT22;46318;52.716;6.444;2023-03-01T05:40:16;-2.40;99.90
60473;DHT22;46318;52.716;6.444;2023-03-01T05:42:53;-2.40;99.90
60473;DHT22;46318;52.716;6.444;2023-03-01T05:45:21;-2.40;99.90
60473;DHT22;46318;52.716;6.444;2023-03-01T05:47:48;-2.40;99.90
60473;DHT22;46318;52.716;6.444;2023-03-01T05:50:21;-2.40;99.90
60473;DHT22;46318;52.716;6.444;2023-03-01T05:52:51;-2.40;99.90
60473;DHT22;46318;52.716;6.444;2023-03-01T05:55:20;-2.50;99.90
60473;DHT22;46318;52.716;6.444;2023-03-01T05:57:47;-2.50;99.90
60473;DHT22;46318;52.716;6.444;2023-03-01T06:00:15;-2.50;99.90
60473;DHT22;46318;52.716;6.444;2023-03-01T06:02:42;-2.50;99.90
60473;DHT22;46318;52.716;6.444;2023-03-01T06:05:10;-2.50;99.90
60473;DHT22;46318;52.716;6.444;2023-03-01T06:07:38;-2.50;99.90
60473;DHT22;46318;52.716;6.444;2023-03-01T06:10:05;-2.50;99.90
60473;DHT22;46318;52.716;6.444;2023-03-01T06:12:33;-2.50;99.90
60473;DHT22;46318;52.716;6.444;2023-03-01T06:15:00;-2.50;99.90
60473;DHT22;46318;52.716;6.444;2023-03-01T06:17:29;-2.50;99.90
60473;DHT22;46318;52.716;6.444;2023-03-01T06:19:56;-2.50;99.90
60473;DHT22;46318;52.716;6.444;2023-03-01T06:22:21;-2.50;99.90
60473;DHT22;46318;52.716;6.444;2023-03-01T06:24:48;-2.60;99.90
60473;DHT22;46318;52.716;6.444;2023-03-01T06:27:13;-2.60;99.90
60473;DHT22;46318;52.716;6.444;2023-03-01T06:29:39;-2.60;99.90
60473;DHT22;46318;52.716;6.444;2023-03-01T06:32:06;-2.60;99.90
60473;DHT22;46318;52.716;6.444;2023-03-01T06:34:33;-2.60;99.90
60473;DHT22;46318;52.716;6.444;2023-03-01T06:36:59;-2.60;99.90
60473;DHT22;46318;52.716;6.444;2023-03-01T06:39:27;-2.60;99.90
60473;DHT22;46318;52.716;6.444;2023-03-01T06:41:53;-2.60;99.90
60473;DHT22;46318;52.716;6.444;2023-03-01T06:44:19;-2.60;99.90
60473;DHT22;46318;52.716;6.444;2023-03-01T06:46:44;-2.60;99.90
60473;DHT22;46318;52.716;6.444;2023-03-01T06:49:10;-2.60;99.90
60473;DHT22;46318;52.716;6.444;2023-03-01T06:51:36;-2.60;99.90
60473;DHT22;46318;52.716;6.444;2023-03-01T06:54:04;-2.60;99.90
60473;DHT22;46318;52.716;6.444;2023-03-01T06:56:31;-2.60;99.90
60473;DHT22;46318;52.716;6.444;2023-03-01T06:58:57;-2.50;99.90
60473;DHT22;46318;52.716;6.444;2023-03-01T07:01:23;-2.50;99.90
60473;DHT22;46318;52.716;6.444;2023-03-01T07:03:49;-2.50;99.90
60473;DHT22;46318;52.716;6.444;2023-03-01T07:06:15;-2.50;99.90
60473;DHT22;46318;52.716;6.444;2023-03-01T07:08:41;-2.40;99.90
60473;DHT22;46318;52.716;6.444;2023-03-01T07:11:06;-2.40;99.90
60473;DHT22;46318;52.716;6.444;2023-03-01T07:13:33;-2.40;99.90
60473;DHT22;46318;52.716;6.444;2023-03-01T07:15:59;-2.40;99.90
60473;DHT22;46318;52.716;6.444;2023-03-01T07:18:25;-2.40;99.90
60473;DHT22;46318;52.716;6.444;2023-03-01T07:20:51;-2.40;99.90
60473;DHT22;46318;52.716;6.444;2023-03-01T07:23:17;-2.30;99.90
60473;DHT22;46318;52.716;6.444;2023-03-01T07:25:42;-2.30;99.90
60473;DHT22;46318;52.716;6.444;2023-03-01T07:28:08;-2.20;99.90
60473;DHT22;46318;52.716;6.444;2023-03-01T07:30:34;-2.20;99.90
60473;DHT22;46318;52.716;6.444;2023-03-01T07:33:00;-2.20;99.90
60473;DHT22;46318;52.716;6.444;2023-03-01T07:35:27;-2.10;99.90
60473;DHT22;46318;52.716;6.444;2023-03-01T07:37:53;-2.10;99.90
60473;DHT22;46318;52.716;6.444;2023-03-01T07:40:19;-2.10;99.90
60473;DHT22;46318;52.716;6.444;2023-03-01T07:42:45;-2.00;99.90
60473;DHT22;46318;52.716;6.444;2023-03-01T07:45:11;-1.90;99.90
60473;DHT22;46318;52.716;6.444;2023-03-01T07:47:39;-1.80;99.90
60473;DHT22;46318;52.716;6.444;2023-03-01T07:50:05;-1.80;99.90
60473;DHT22;46318;52.716;6.444;2023-03-01T07:52:31;-1.70;99.90
60473;DHT22;46318;52.716;6.444;2023-03-01T07:54:57;-1.60;99.90
60473;DHT22;46318;52.716;6.444;2023-03-01T07:57:23;-1.50;99.90
60473;DHT22;46318;52.716;6.444;2023-03-01T07:59:49;-1.50;99.90
60473;DHT22;46318;52.716;6.444;2023-03-01T08:02:15;-1.30;99.90
60473;DHT22;46318;52.716;6.444;2023-03-01T08:04:41;-1.30;99.90
60473;DHT22;46318;52.716;6.444;2023-03-01T08:07:08;-1.20;99.90
60473;DHT22;46318;52.716;6.444;2023-03-01T08:09:37;-1.10;99.90
60473;DHT22;46318;52.716;6.444;2023-03-01T08:12:04;-1.10;99.90
60473;DHT22;46318;52.716;6.444;2023-03-01T08:14:33;-1.00;99.90
60473;DHT22;46318;52.716;6.444;2023-03-01T08:16:59;-0.90;99.90
60473;DHT22;46318;52.716;6.444;2023-03-01T08:19:25;-0.80;99.90
60473;DHT22;46318;52.716;6.444;2023-03-01T08:21:53;-0.70;99.90
60473;DHT22;46318;52.716;6.444;2023-03-01T08:24:19;-0.60;99.90
60473;DHT22;46318;52.716;6.444;2023-03-01T08:26:45;-0.50;99.90
60473;DHT22;46318;52.716;6.444;2023-03-01T08:29:11;-0.40;99.90
60473;DHT22;46318;52.716;6.444;2023-03-01T08:31:38;-0.30;99.90
60473;DHT22;46318;52.716;6.444;2023-03-01T08:34:08;-0.10;99.90
60473;DHT22;46318;52.716;6.444;2023-03-01T08:36:38;0.00;99.90
60473;DHT22;46318;52.716;6.444;2023-03-01T08:39:07;0.10;99.90
60473;DHT22;46318;52.716;6.444;2023-03-01T08:41:34;0.20;99.90
60473;DHT22;46318;52.716;6.444;2023-03-01T08:44:00;0.30;99.90
60473;DHT22;46318;52.716;6.444;2023-03-01T08:46:29;0.40;99.90
60473;DHT22;46318;52.716;6.444;2023-03-01T08:49:12;0.50;99.90
60473;DHT22;46318;52.716;6.444;2023-03-01T08:51:39;0.60;99.90
60473;DHT22;46318;52.716;6.444;2023-03-01T08:54:25;0.70;99.90
60473;DHT22;46318;52.716;6.444;2023-03-01T08:56:51;0.80;99.90
60473;DHT22;46318;52.716;6.444;2023-03-01T08:59:17;0.90;99.90
60473;DHT22;46318;52.716;6.444;2023-03-01T09:01:44;1.00;99.90
60473;DHT22;46318;52.716;6.444;2023-03-01T09:04:14;1.10;99.90
60473;DHT22;46318;52.716;6.444;2023-03-01T09:06:40;1.30;99.90
60473;DHT22;46318;52.716;6.444;2023-03-01T09:09:07;1.40;99.90
60473;DHT22;46318;52.716;6.444;2023-03-01T09:11:40;1.40;99.90
60473;DHT22;46318;52.716;6.444;2023-03-01T09:14:06;1.60;99.90
60473;DHT22;46318;52.716;6.444;2023-03-01T09:16:32;1.70;99.90
60473;DHT22;46318;52.716;6.444;2023-03-01T09:19:02;1.80;99.90
60473;DHT22;46318;52.716;6.444;2023-03-01T09:21:28;1.90;99.90
60473;DHT22;46318;52.716;6.444;2023-03-01T09:23:56;2.10;99.90
60473;DHT22;46318;52.716;6.444;2023-03-01T09:26:23;2.20;99.90
60473;DHT22;46318;52.716;6.444;2023-03-01T09:28:51;2.30;99.90
60473;DHT22;46318;52.716;6.444;2023-03-01T09:31:20;2.40;99.90
60473;DHT22;46318;52.716;6.444;2023-03-01T09:33:48;2.50;99.90
60473;DHT22;46318;52.716;6.444;2023-03-01T09:36:20;2.60;99.90
60473;DHT22;46318;52.716;6.444;2023-03-01T09:38:48;2.70;99.90
60473;DHT22;46318;52.716;6.444;2023-03-01T09:46:41;3.00;99.90
60473;DHT22;46318;52.716;6.444;2023-03-01T09:49:19;3.10;99.90
60473;DHT22;46318;52.716;6.444;2023-03-01T09:52:03;3.20;99.90
60473;DHT22;46318;52.716;6.444;2023-03-01T09:54:37;3.30;99.90
60473;DHT22;46318;52.716;6.444;2023-03-01T10:00:47;3.40;99.90
60473;DHT22;46318;52.716;6.444;2023-03-01T10:06:21;3.60;99.90
60473;DHT22;46318;52.716;6.444;2023-03-01T10:08:56;3.70;99.90
60473;DHT22;46318;52.716;6.444;2023-03-01T10:11:30;3.80;99.90
60473;DHT22;46318;52.716;6.444;2023-03-01T10:14:19;3.90;99.90
60473;DHT22;46318;52.716;6.444;2023-03-01T10:17:32;4.00;99.90
60473;DHT22;46318;52.716;6.444;2023-03-01T10:20:19;4.10;99.90
60473;DHT22;46318;52.716;6.444;2023-03-01T10:22:50;4.20;99.90
60473;DHT22;46318;52.716;6.444;2023-03-01T10:25:42;4.30;99.90
60473;DHT22;46318;52.716;6.444;2023-03-01T10:28:35;4.40;99.90
60473;DHT22;46318;52.716;6.444;2023-03-01T10:31:22;4.50;99.90
60473;DHT22;46318;52.716;6.444;2023-03-01T10:33:53;4.50;99.90
60473;DHT22;46318;52.716;6.444;2023-03-01T10:36:23;4.50;99.50
60473;DHT22;46318;52.716;6.444;2023-03-01T10:38:55;4.60;98.80
60473;DHT22;46318;52.716;6.444;2023-03-01T10:41:25;4.60;98.20
60473;DHT22;46318;52.716;6.444;2023-03-01T10:43:59;4.70;98.10
60473;DHT22;46318;52.716;6.444;2023-03-01T10:46:29;4.70;97.50
60473;DHT22;46318;52.716;6.444;2023-03-01T10:49:20;4.70;97.90
60473;DHT22;46318;52.716;6.444;2023-03-01T10:51:50;4.80;97.80
60473;DHT22;46318;52.716;6.444;2023-03-01T10:54:29;4.90;97.50
60473;DHT22;46318;52.716;6.444;2023-03-01T10:56:59;4.90;96.90
60473;DHT22;46318;52.716;6.444;2023-03-01T10:59:28;5.00;96.50
60473;DHT22;46318;52.716;6.444;2023-03-01T11:02:16;5.00;96.30
60473;DHT22;46318;52.716;6.444;2023-03-01T11:05:00;5.10;96.30
60473;DHT22;46318;52.716;6.444;2023-03-01T11:07:26;5.10;96.20
60473;DHT22;46318;52.716;6.444;2023-03-01T11:09:52;5.20;96.60
60473;DHT22;46318;52.716;6.444;2023-03-01T11:12:19;5.30;95.80
60473;DHT22;46318;52.716;6.444;2023-03-01T11:14:55;5.30;95.70
60473;DHT22;46318;52.716;6.444;2023-03-01T11:17:28;5.40;95.80
60473;DHT22;46318;52.716;6.444;2023-03-01T11:20:02;5.50;95.40
60473;DHT22;46318;52.716;6.444;2023-03-01T11:22:33;5.60;95.40
60473;DHT22;46318;52.716;6.444;2023-03-01T11:25:00;5.70;95.10
60473;DHT22;46318;52.716;6.444;2023-03-01T11:27:43;5.70;95.10
60473;DHT22;46318;52.716;6.444;2023-03-01T11:33:32;5.90;94.50
60473;DHT22;46318;52.716;6.444;2023-03-01T11:38:50;6.00;94.70
60473;DHT22;46318;52.716;6.444;2023-03-01T11:41:18;6.10;94.00
60473;DHT22;46318;52.716;6.444;2023-03-01T11:58:40;6.60;92.80
60473;DHT22;46318;52.716;6.444;2023-03-01T12:25:29;7.50;88.30
60473;DHT22;46318;52.716;6.444;2023-03-01T12:28:21;7.60;88.60
60473;DHT22;46318;52.716;6.444;2023-03-01T12:34:32;7.70;87.70
60473;DHT22;46318;52.716;6.444;2023-03-01T12:37:25;7.80;88.50
60473;DHT22;46318;52.716;6.444;2023-03-01T12:40:20;7.90;88.90
60473;DHT22;46318;52.716;6.444;2023-03-01T12:43:20;8.00;83.40
60473;DHT22;46318;52.716;6.444;2023-03-01T12:46:52;8.10;86.00
60473;DHT22;46318;52.716;6.444;2023-03-01T12:49:12;8.20;86.00
60473;DHT22;46318;52.716;6.444;2023-03-01T12:51:39;8.20;86.40
60473;DHT22;46318;52.716;6.444;2023-03-01T12:54:16;8.30;85.20
60473;DHT22;46318;52.716;6.444;2023-03-01T12:56:48;8.40;79.60
60473;DHT22;46318;52.716;6.444;2023-03-01T13:02:07;8.40;83.80
60473;DHT22;46318;52.716;6.444;2023-03-01T13:04:58;8.50;82.40
60473;DHT22;46318;52.716;6.444;2023-03-01T13:07:42;8.60;82.50
60473;DHT22;46318;52.716;6.444;2023-03-01T13:10:48;8.60;78.90
60473;DHT22;46318;52.716;6.444;2023-03-01T13:13:22;8.70;76.90
60473;DHT22;46318;52.716;6.444;2023-03-01T13:15:52;8.70;80.20
60473;DHT22;46318;52.716;6.444;2023-03-01T13:20:55;8.80;78.60
60473;DHT22;46318;52.716;6.444;2023-03-01T13:26:14;9.00;78.40
60473;DHT22;46318;52.716;6.444;2023-03-01T13:28:46;9.00;76.60
60473;DHT22;46318;52.716;6.444;2023-03-01T13:33:52;9.10;74.40
60473;DHT22;46318;52.716;6.444;2023-03-01T13:46:59;9.40;68.50
60473;DHT22;46318;52.716;6.444;2023-03-01T13:55:15;9.30;72.30
60473;DHT22;46318;52.716;6.444;2023-03-01T13:57:45;9.30;74.90
60473;DHT22;46318;52.716;6.444;2023-03-01T14:00:26;9.20;74.50
60473;DHT22;46318;52.716;6.444;2023-03-01T14:05:34;8.90;70.40
60473;DHT22;46318;52.716;6.444;2023-03-01T14:08:05;8.80;76.90
60473;DHT22;46318;52.716;6.444;2023-03-01T14:19:28;8.40;78.10
60473;DHT22;46318;52.716;6.444;2023-03-01T14:24:54;8.30;76.10
60473;DHT22;46318;52.716;6.444;2023-03-01T14:27:25;8.30;77.50
60473;DHT22;46318;52.716;6.444;2023-03-01T14:29:59;8.20;77.30
60473;DHT22;46318;52.716;6.444;2023-03-01T14:32:29;8.20;76.00
60473;DHT22;46318;52.716;6.444;2023-03-01T14:34:57;8.10;76.70
60473;DHT22;46318;52.716;6.444;2023-03-01T14:37:29;8.10;76.60
60473;DHT22;46318;52.716;6.444;2023-03-01T14:39:58;8.00;75.20
60473;DHT22;46318;52.716;6.444;2023-03-01T14:42:29;8.00;75.90
60473;DHT22;46318;52.716;6.444;2023-03-01T14:44:58;8.00;75.00
60473;DHT22;46318;52.716;6.444;2023-03-01T14:47:31;7.90;75.50
60473;DHT22;46318;52.716;6.444;2023-03-01T14:52:34;7.80;77.90
60473;DHT22;46318;52.716;6.444;2023-03-01T14:58:15;7.80;78.90
60473;DHT22;46318;52.716;6.444;2023-03-01T15:00:51;7.80;77.60
60473;DHT22;46318;52.716;6.444;2023-03-01T15:03:42;7.70;79.10
60473;DHT22;46318;52.716;6.444;2023-03-01T15:06:11;7.70;78.20
60473;DHT22;46318;52.716;6.444;2023-03-01T15:08:42;7.70;79.80
60473;DHT22;46318;52.716;6.444;2023-03-01T15:11:23;7.70;79.90
60473;DHT22;46318;52.716;6.444;2023-03-01T15:13:53;7.70;80.00
60473;DHT22;46318;52.716;6.444;2023-03-01T15:16:31;7.60;81.30
60473;DHT22;46318;52.716;6.444;2023-03-01T15:19:05;7.60;81.90
60473;DHT22;46318;52.716;6.444;2023-03-01T15:21:38;7.60;82.10
60473;DHT22;46318;52.716;6.444;2023-03-01T15:24:17;7.60;82.70
60473;DHT22;46318;52.716;6.444;2023-03-01T15:26:56;7.60;81.40
60473;DHT22;46318;52.716;6.444;2023-03-01T15:29:25;7.50;82.40
60473;DHT22;46318;52.716;6.444;2023-03-01T15:32:05;7.50;83.10
60473;DHT22;46318;52.716;6.444;2023-03-01T15:34:46;7.40;83.90
60473;DHT22;46318;52.716;6.444;2023-03-01T15:37:47;7.50;84.60
60473;DHT22;46318;52.716;6.444;2023-03-01T15:40:32;7.40;85.10
60473;DHT22;46318;52.716;6.444;2023-03-01T15:42:59;7.40;85.10
60473;DHT22;46318;52.716;6.444;2023-03-01T15:45:28;7.40;85.30
60473;DHT22;46318;52.716;6.444;2023-03-01T15:48:01;7.40;84.90
60473;DHT22;46318;52.716;6.444;2023-03-01T15:50:34;7.40;85.00
60473;DHT22;46318;52.716;6.444;2023-03-01T15:53:03;7.30;85.50
60473;DHT22;46318;52.716;6.444;2023-03-01T15:55:32;7.30;85.90
60473;DHT22;46318;52.716;6.444;2023-03-01T16:00:27;7.30;86.30
60473;DHT22;46318;52.716;6.444;2023-03-01T16:02:54;7.30;86.70
60473;DHT22;46318;52.716;6.444;2023-03-01T16:05:23;7.20;86.60
60473;DHT22;46318;52.716;6.444;2023-03-01T16:07:54;7.30;86.60
60473;DHT22;46318;52.716;6.444;2023-03-01T16:10:21;7.20;87.10
60473;DHT22;46318;52.716;6.444;2023-03-01T16:12:47;7.20;87.00
60473;DHT22;46318;52.716;6.444;2023-03-01T16:15:27;7.20;87.30
60473;DHT22;46318;52.716;6.444;2023-03-01T16:17:57;7.10;87.70
60473;DHT22;46318;52.716;6.444;2023-03-01T16:20:26;7.10;88.20
60473;DHT22;46318;52.716;6.444;2023-03-01T16:22:53;7.10;88.50
60473;DHT22;46318;52.716;6.444;2023-03-01T16:25:20;7.10;89.00
60473;DHT22;46318;52.716;6.444;2023-03-01T16:27:50;7.00;89.00
60473;DHT22;46318;52.716;6.444;2023-03-01T16:30:19;7.10;89.70
60473;DHT22;46318;52.716;6.444;2023-03-01T16:32:48;7.00;90.00
60473;DHT22;46318;52.716;6.444;2023-03-01T16:35:17;7.00;90.10
60473;DHT22;46318;52.716;6.444;2023-03-01T16:37:44;7.00;90.20
60473;DHT22;46318;52.716;6.444;2023-03-01T16:40:20;6.90;90.30
60473;DHT22;46318;52.716;6.444;2023-03-01T16:42:49;6.90;90.30
60473;DHT22;46318;52.716;6.444;2023-03-01T16:45:16;6.90;90.50
60473;DHT22;46318;52.716;6.444;2023-03-01T16:47:42;6.90;90.70
60473;DHT22;46318;52.716;6.444;2023-03-01T16:50:08;6.80;90.80
60473;DHT22;46318;52.716;6.444;2023-03-01T16:52:34;6.80;91.00
60473;DHT22;46318;52.716;6.444;2023-03-01T16:55:02;6.80;91.10
60473;DHT22;46318;52.716;6.444;2023-03-01T16:57:29;6.80;91.20
60473;DHT22;46318;52.716;6.444;2023-03-01T16:59:55;6.80;91.40
60473;DHT22;46318;52.716;6.444;2023-03-01T17:02:22;6.70;91.60
60473;DHT22;46318;52.716;6.444;2023-03-01T17:04:55;6.70;91.70
60473;DHT22;46318;52.716;6.444;2023-03-01T17:07:22;6.70;91.80
60473;DHT22;46318;52.716;6.444;2023-03-01T17:09:48;6.60;92.20
60473;DHT22;46318;52.716;6.444;2023-03-01T17:12:14;6.60;92.10
60473;DHT22;46318;52.716;6.444;2023-03-01T17:14:41;6.60;92.20
60473;DHT22;46318;52.716;6.444;2023-03-01T17:17:08;6.50;92.40
60473;DHT22;46318;52.716;6.444;2023-03-01T17:19:36;6.50;92.60
60473;DHT22;46318;52.716;6.444;2023-03-01T17:22:07;6.50;92.70
60473;DHT22;46318;52.716;6.444;2023-03-01T17:24:37;6.40;92.80
60473;DHT22;46318;52.716;6.444;2023-03-01T17:27:04;6.40;93.00
60473;DHT22;46318;52.716;6.444;2023-03-01T17:29:31;6.40;93.10
60473;DHT22;46318;52.716;6.444;2023-03-01T17:31:57;6.30;93.20
60473;DHT22;46318;52.716;6.444;2023-03-01T17:34:23;6.30;93.40
60473;DHT22;46318;52.716;6.444;2023-03-01T17:36:50;6.30;93.70
60473;DHT22;46318;52.716;6.444;2023-03-01T17:39:17;6.20;93.70
60473;DHT22;46318;52.716;6.444;2023-03-01T17:41:51;6.20;93.90
60473;DHT22;46318;52.716;6.444;2023-03-01T17:44:17;6.10;94.00
60473;DHT22;46318;52.716;6.444;2023-03-01T17:46:43;6.10;94.20
60473;DHT22;46318;52.716;6.444;2023-03-01T17:49:09;6.10;94.40
60473;DHT22;46318;52.716;6.444;2023-03-01T17:51:35;6.10;94.60
60473;DHT22;46318;52.716;6.444;2023-03-01T17:54:01;6.00;94.60
60473;DHT22;46318;52.716;6.444;2023-03-01T17:56:27;6.00;94.90
60473;DHT22;46318;52.716;6.444;2023-03-01T17:58:53;5.90;94.90
60473;DHT22;46318;52.716;6.444;2023-03-01T18:01:20;5.90;95.00
60473;DHT22;46318;52.716;6.444;2023-03-01T18:03:50;5.90;95.20